Terminal Aerodrome Forecast
Issued by NWS

Home | Current Version | Previous Version | Text Only | Print | Product List | Glossary Off
Versions: 1 2 3 4 5 6 7 8 9 10 11 12 13 14 15 16 17

954
FTUS43 KABR 150522
TAFPIR
TAF
KPIR 150522Z 1506/1606 32011KT P6SM BKN100
     FM152300 03006KT P6SM FEW250
     FM160200 08006KT P6SM FEW200=

USA.gov is the U.S. government's official web portal to all federal, state and local government web resources and services.